Aérodrome :
LOGIN :

S'inscrire | Disclaimer

   EN    FR    IT 

 










Légende :    VFR   VFR Marginal   IFR   IFR Intensif   IFR Très Intensif
Visi : 
Plafond : 
>= 8 km
>= 3000ft
5 à 8 km
1000 à 3000 ft
1500m à 5 km
500 à 1000 ft
800 à 1500m
200 à 500 ft
< 800m
< 200 ft
Symboles :   Orages  Brouillard  Fortes neiges  Fortes précipitations  Vent > 20 kt
SIGMETs :   Divers  Orages  Givrage  Turbulence  Onde Orograph.  Cendres Volcan.







- Altitude de l'aérodrome : 53 ft
- Code IATA : HAM


EDDH - Hamburg

DERNIER METAR :
  • 210250Z 22005KT 3500 BR SCT010 BKN015 09/08 Q1032 TEMPO 2500 BKN010

METARs EXPIRÉS :
  • 210220Z 24005KT 3500 BR SCT009 BKN016 09/08 Q1032 TEMPO 2500
  • 210150Z 23005KT 3500 BR FEW007 BKN018 09/08 Q1032 TEMPO 2500
  • 210120Z 23005KT 4000 BR FEW007 BKN022 09/08 Q1032 TEMPO 2500
  • 210050Z 25006KT 4000 BR SCT007 BKN025 09/08 Q1032 TEMPO 2500
  • 210020Z 23007KT 4000 BR BKN007 09/08 Q1032 NOSIG

TAF AMD TAF EDDH
Valide du 21 à 02h jusqu'au 22 à 06h UTC


210201Z 2102/2206 24006KT 4000 BR SCT007 BKN015
TEMPO 2102/2107 2000 BR BKN007
BECMG 2108/2110 26012KT 9999
TEMPO 2110/2112 BKN012
BECMG 2117/2119 25004KT
TEMPO 2117/2206 BKN012
Pas de NOTAMs connus pour ce terrain.



MET'MAP, la Météo Aéronautique d'un coup d'oeil ! - Copyright ORBIFLY Décembre 2007 - Disclaimer

ORBIFLY MET'MAP TEAM :

Programmation & Développement : Alexandra Zaïnal
Conception & Développement : Baudouin d'Aumeries
Co-Programmation & Développement : Marc-Olivier Méhu
Soutien technique & logistique : Manuel Goepfert

Contact : metmap@orbifly.com




SOURCES & CREDITS :

   NOAA